Floresville, TX

5:13 PM CST on January 20, 2017 (GMT -0600)
Belaire Subdivision | | Change Station
Active Advisory: Gale Watch

Elev 400 ft 29.12 °N, 98.16 °W | Updated 2 seconds ago

Clear
Clear
73.0 °F
Feels Like 76 °F
N
1.0
Wind Variable Wind from ESE

Today
High -- | Low -- °F
--% Chance of Precip.
Yesterday
High -- | Low -- °F
Precip. -- in
Pressure 29.63 in
Visibility 10.0 miles
Clouds Clear
Heat Index 76 °F
Dew Point 58 °F
Humidity 61%
Rainfall 0.00 in
Snow Depth Not available.
7:26 AM 6:01 PM
Last Quarter, 40% visible
METAR KSSF 202253Z 00000KT 10SM CLR 24/09 A2964 RMK AO2 SLP032 T02390094
Pressure 29.63 in
Visibility 10.0 miles
Clouds Clear
Heat Index 76 °F
Dew Point 58 °F
Humidity 61%
Rainfall 0.00 in
Snow Depth Not available.
7:26 AM 6:01 PM
Last Quarter, 40% visible
METAR KSSF 202253Z 00000KT 10SM CLR 24/09 A2964 RMK AO2 SLP032 T02390094

Get Your Daily Forecast Email!

Thanks for signing up!

Be on the lookout for a verification email in your inbox.

You'll start receiving the daily forecast at 8 AM.

×

10-Day Weather Forecast

Almanac

Astronomy

Jan. 20, 2017 Rise Set
Actual Time
Civil Twilight
Nautical Twilight
Astronomical Twilight
Moon
Length of Visible Light
Length of Day
Tomorrow will be .
, % of the Moon is Illuminated

Today's Extremes

State Highs State Lows

Community

WunderPhotos

Upload Photos

1,962,540 photos uploaded!

WunderBlog® & News

Nearby

Air Quality

  Air Quality AQ Index Pollutant
Not available.

Snow Depth

Station Depth Elevation

Earthquake Activity

City Distance Mag. Time & Date
Minimum magnitude displayed is 2.5.

Coastal Water Temperatures

Place Temperature

Stations

Nearby Weather Stations

Station Location Temp. Windchill Dew Point Humidity Wind Precip. Elev Updated Type
                   

Watches & Warnings

Gale Watch
Issued: 3:30 PM CST Jan. 20, 2017 – National Weather Service

... Gale watch remains in effect from late Saturday night through
Sunday evening...

A gale watch remains in effect from late Saturday night through
Sunday evening.

* Winds: northwest 25 to 30 knots with frequent gusts to gale
force across bays and nearshore waters and sustained gale
force winds across offshore waters. Brief gusts to storm force
will be possible across offshore waters.

* Waves/seas: bays rough to occasionally very rough. Seas building
to 6 to 8 feet nearshore and 12 to 15 feet offshore.

Precautionary/preparedness actions...

A gale watch is issued when the risk of gale force winds of 34 to
47 knots has significantly increased... but the specific timing
and/or location is still uncertain. It is intended to provide
additional lead time for mariners who may wish to consider
altering their plans.